Time;durP1;ratioP1;P1;durP2;ratioP2;P2;SDS_P1;SDS_P2;PMS_P1;PMS_P2;Temp;Humidity;BMP_temperature;BMP_pressure;BME280_temperature;BME280_humidity;BME280_pressure;Samples;Min_cycle;Max_cycle;Signal;HPM_P1;HPM_P2
2021/10/13 00:02:02;;;;;;;8.27;7.57;;;13.10;99.90;;;;;;4963509;28;20482;-70
2021/10/13 00:04:36;;;;;;;7.63;7.00;;;13.20;99.90;;;;;;4971516;28;20451;-70
2021/10/13 00:07:07;;;;;;;7.40;6.70;;;13.30;99.30;;;;;;4981515;28;20474;-70
2021/10/13 00:09:37;;;;;;;7.10;6.40;;;13.40;99.90;;;;;;4968695;28;20554;-68
2021/10/13 00:12:08;;;;;;;7.20;6.53;;;13.30;99.90;;;;;;4972892;28;20491;-69
2021/10/13 00:14:41;;;;;;;8.13;7.33;;;13.40;99.80;;;;;;4973147;28;20484;-69
2021/10/13 00:17:11;;;;;;;7.23;6.53;;;13.30;98.70;;;;;;4969465;28;20544;-69
2021/10/13 00:19:42;;;;;;;7.60;6.90;;;13.30;98.00;;;;;;4972919;28;20558;-69
2021/10/13 00:22:13;;;;;;;7.97;7.00;;;13.30;98.70;;;;;;4969530;28;20463;-69
2021/10/13 00:24:44;;;;;;;7.40;6.60;;;13.20;98.50;;;;;;4967353;28;20479;-69
2021/10/13 00:27:14;;;;;;;7.13;6.53;;;13.10;99.50;;;;;;4971577;28;20456;-69
2021/10/13 00:29:47;;;;;;;10.33;7.33;;;13.00;99.70;;;;;;4972939;28;20993;-69
2021/10/13 00:32:18;;;;;;;7.60;6.87;;;13.10;99.40;;;;;;4966667;28;20989;-71
2021/10/13 00:34:49;;;;;;;8.33;6.73;;;13.00;99.90;;;;;;4970415;28;20484;-71
2021/10/13 00:37:20;;;;;;;7.43;6.73;;;13.00;99.90;;;;;;4974574;28;20476;-69
2021/10/13 00:39:52;;;;;;;8.70;7.00;;;13.00;99.90;;;;;;4970797;28;20615;-71
2021/10/13 00:42:22;;;;;;;7.67;6.93;;;12.70;99.90;;;;;;4962969;28;20472;-69
2021/10/13 00:44:55;;;;;;;8.10;7.00;;;12.60;99.90;;;;;;4970746;28;20463;-69
2021/10/13 00:47:26;;;;;;;7.60;7.00;;;12.50;99.90;;;;;;4968562;28;20475;-71
2021/10/13 00:49:56;;;;;;;8.20;7.37;;;12.40;99.90;;;;;;4968206;28;20497;-69
2021/10/13 00:52:27;;;;;;;8.47;7.37;;;12.20;99.90;;;;;;4968222;28;20510;-69
2021/10/13 00:54:58;;;;;;;7.83;7.13;;;12.10;99.90;;;;;;4967313;28;20497;-70
2021/10/13 00:57:29;;;;;;;8.80;8.10;;;12.00;99.90;;;;;;4968103;28;20487;-69
2021/10/13 01:00:02;;;;;;;9.47;8.27;;;12.10;99.90;;;;;;4970359;28;20823;-67
2021/10/13 01:02:34;;;;;;;9.57;7.63;;;12.00;99.90;;;;;;4967636;28;20501;-67
2021/10/13 01:05:19;;;;;;;9.10;8.30;;;11.80;99.90;;;;;;4959045;28;20526;-67
2021/10/13 01:08:16;;;;;;;9.30;8.50;;;11.70;99.90;;;;;;4969027;28;20466;-68
2021/10/13 01:10:57;;;;;;;8.60;7.80;;;11.70;99.90;;;;;;4977642;28;20464;-72
2021/10/13 01:13:39;;;;;;;9.30;8.40;;;11.60;99.90;;;;;;4973344;28;20470;-68
2021/10/13 01:16:19;;;;;;;9.83;9.03;;;11.50;99.90;;;;;;4973934;28;20980;-72
2021/10/13 01:18:54;;;;;;;9.73;8.67;;;11.40;99.90;;;;;;4962900;28;20507;-71
2021/10/13 01:21:42;;;;;;;10.50;9.43;;;11.50;99.90;;;;;;4967008;28;20506;-71
2021/10/13 01:24:33;;;;;;;10.87;9.93;;;11.40;99.90;;;;;;4960291;28;20464;-71
2021/10/13 01:27:32;;;;;;;11.80;10.00;;;11.40;99.90;;;;;;4958109;28;20837;-70
2021/10/13 01:30:05;;;;;;;11.10;10.10;;;11.40;99.90;;;;;;4967928;28;20970;-70
2021/10/13 01:32:39;;;;;;;9.90;9.00;;;11.40;99.90;;;;;;4967572;28;20460;-69
2021/10/13 01:35:12;;;;;;;11.23;10.10;;;11.30;99.90;;;;;;4971700;28;20510;-69
2021/10/13 01:37:47;;;;;;;11.27;10.10;;;11.30;99.90;;;;;;4971435;28;20470;-73
2021/10/13 01:40:21;;;;;;;10.93;9.93;;;11.20;99.90;;;;;;4968988;28;20455;-71
2021/10/13 01:42:56;;;;;;;11.07;9.93;;;11.20;99.90;;;;;;4969266;28;20476;-70
2021/10/13 01:45:28;;;;;;;10.80;9.23;;;11.20;99.90;;;;;;4970054;28;20463;-70
2021/10/13 01:48:00;;;;;;;10.20;9.13;;;11.20;99.90;;;;;;4964089;28;20480;-69
2021/10/13 01:50:31;;;;;;;11.13;9.20;;;11.20;99.90;;;;;;4974190;28;20495;-70
2021/10/13 01:53:03;;;;;;;10.70;9.60;;;11.20;99.90;;;;;;4966014;28;20468;-67
2021/10/13 01:55:36;;;;;;;9.97;8.97;;;11.00;99.90;;;;;;4964655;28;20496;-68
2021/10/13 01:58:09;;;;;;;10.70;9.60;;;10.90;99.90;;;;;;4962004;28;20460;-70
2021/10/13 02:00:42;;;;;;;9.90;8.50;;;10.90;99.90;;;;;;4969689;28;20616;-68
2021/10/13 02:03:14;;;;;;;10.20;8.63;;;10.90;99.90;;;;;;4966592;28;20463;-68
2021/10/13 02:05:46;;;;;;;10.53;9.40;;;10.90;99.90;;;;;;4970618;28;20949;-68
2021/10/13 02:08:18;;;;;;;9.40;8.60;;;10.90;99.90;;;;;;4977037;28;20474;-68
2021/10/13 02:10:51;;;;;;;9.63;8.73;;;10.90;99.90;;;;;;4971843;28;20858;-68
2021/10/13 02:13:25;;;;;;;10.60;9.60;;;10.90;99.90;;;;;;4979377;28;20990;-67
2021/10/13 02:15:56;;;;;;;9.60;8.70;;;10.90;99.90;;;;;;4970783;28;20494;-68
2021/10/13 02:18:30;;;;;;;9.63;8.63;;;10.80;99.90;;;;;;4974799;28;20464;-68
2021/10/13 02:21:03;;;;;;;10.57;9.57;;;10.80;99.90;;;;;;4971874;28;20463;-65
2021/10/13 02:23:37;;;;;;;10.03;9.20;;;10.80;99.90;;;;;;4970288;28;20473;-66
2021/10/13 02:26:17;;;;;;;9.63;8.60;;;10.70;99.90;;;;;;4969869;28;20452;-68
2021/10/13 02:28:57;;;;;;;9.37;8.53;;;10.70;99.90;;;;;;4968860;28;20466;-67
2021/10/13 02:31:28;;;;;;;11.07;9.70;;;10.70;99.90;;;;;;4973439;28;20477;-69
2021/10/13 02:33:59;;;;;;;11.13;8.70;;;10.70;99.90;;;;;;4986608;28;20466;-67
2021/10/13 02:36:30;;;;;;;10.10;9.30;;;10.70;99.90;;;;;;4972164;28;20854;-63
2021/10/13 02:39:01;;;;;;;11.57;10.43;;;10.70;99.90;;;;;;4968674;28;20474;-66
2021/10/13 02:41:32;;;;;;;10.57;9.47;;;10.70;99.90;;;;;;4969240;28;20817;-65
2021/10/13 02:44:05;;;;;;;12.80;9.47;;;10.70;99.90;;;;;;4966848;28;20590;-67
2021/10/13 02:46:43;;;;;;;9.83;8.83;;;10.70;99.90;;;;;;4971509;28;20463;-66
2021/10/13 02:49:21;;;;;;;10.03;9.07;;;10.70;99.90;;;;;;4974610;28;20463;-66
2021/10/13 02:52:03;;;;;;;11.20;9.60;;;10.70;99.90;;;;;;4955917;28;20447;-65
2021/10/13 02:54:41;;;;;;;9.97;9.17;;;10.60;99.90;;;;;;4960020;28;20475;-65
2021/10/13 02:57:14;;;;;;;14.37;10.80;;;10.60;99.90;;;;;;4968452;28;20463;-65
2021/10/13 02:59:50;;;;;;;11.63;10.40;;;10.60;99.90;;;;;;4970066;28;20464;-64
2021/10/13 03:02:25;;;;;;;11.50;10.43;;;10.50;99.90;;;;;;4967744;28;20477;-65
2021/10/13 03:05:00;;;;;;;11.57;10.37;;;10.50;99.90;;;;;;4968438;28;20498;-65
2021/10/13 03:07:38;;;;;;;11.93;10.50;;;10.60;99.90;;;;;;4968404;28;20507;-65
2021/10/13 03:10:10;;;;;;;11.00;10.00;;;10.60;99.90;;;;;;4969053;28;20466;-65
2021/10/13 03:12:44;;;;;;;11.47;10.37;;;10.50;99.90;;;;;;4971875;28;20467;-66
2021/10/13 03:15:17;;;;;;;11.23;9.50;;;10.50;99.90;;;;;;4973157;28;20780;-63
2021/10/13 03:17:52;;;;;;;11.80;10.60;;;10.40;99.90;;;;;;4967242;28;20472;-64
2021/10/13 03:20:24;;;;;;;10.53;9.53;;;10.50;99.90;;;;;;4961788;28;20475;-64
2021/10/13 03:22:57;;;;;;;11.20;10.20;;;10.50;99.90;;;;;;4958431;28;20494;-65
2021/10/13 03:25:30;;;;;;;11.50;10.37;;;10.50;99.90;;;;;;4965063;28;20460;-62
2021/10/13 03:28:02;;;;;;;9.90;8.90;;;10.50;99.90;;;;;;4958808;28;20481;-62
2021/10/13 03:30:35;;;;;;;9.07;8.25;;;10.50;99.90;;;;;;4960177;28;20463;-63
2021/10/13 03:33:05;;;;;;;9.93;8.93;;;10.50;99.90;;;;;;4967213;28;20715;-63
2021/10/13 03:35:36;;;;;;;10.63;8.65;;;10.50;99.90;;;;;;4967962;28;20531;-63
2021/10/13 03:38:08;;;;;;;11.98;8.63;;;10.40;99.90;;;;;;4968309;28;20299;-62
2021/10/13 03:40:40;;;;;;;9.02;8.23;;;10.40;99.90;;;;;;4966395;28;20242;-62
2021/10/13 03:43:12;;;;;;;10.03;8.47;;;10.30;99.90;;;;;;4967879;28;20713;-62
2021/10/13 03:45:44;;;;;;;10.57;7.80;;;10.20;99.90;;;;;;4967912;28;20460;-62
2021/10/13 03:48:15;;;;;;;9.88;8.77;;;10.10;99.90;;;;;;4963145;28;20227;-63
2021/10/13 03:50:46;;;;;;;11.73;8.48;;;10.10;99.90;;;;;;4965350;28;20240;-63
2021/10/13 03:53:16;;;;;;;8.65;7.85;;;10.00;99.90;;;;;;4968362;28;20217;-62
2021/10/13 03:55:47;;;;;;;9.00;7.50;;;9.90;99.90;;;;;;4969093;28;20240;-62
2021/10/13 03:58:18;;;;;;;6.70;6.10;;;9.90;99.90;;;;;;4965542;28;20220;-62
2021/10/13 04:00:51;;;;;;;7.75;6.50;;;9.90;99.90;;;;;;4964700;28;20212;-61
2021/10/13 04:03:22;;;;;;;5.82;5.32;;;9.80;99.90;;;;;;4968244;28;20224;-62
2021/10/13 04:05:53;;;;;;;5.97;5.47;;;9.70;99.90;;;;;;4969523;28;20228;-62
2021/10/13 04:08:26;;;;;;;6.55;5.80;;;9.70;99.90;;;;;;4965665;28;20322;-61
2021/10/13 04:10:56;;;;;;;6.03;5.05;;;9.60;99.90;;;;;;4967407;28;20324;-62
2021/10/13 04:13:27;;;;;;;5.78;5.28;;;9.50;99.90;;;;;;4968767;28;20643;-62
2021/10/13 04:15:59;;;;;;;5.10;4.60;;;9.40;99.90;;;;;;4966752;28;20447;-62
2021/10/13 04:18:30;;;;;;;5.20;4.70;;;9.30;99.90;;;;;;4962854;28;20232;-62
2021/10/13 04:21:01;;;;;;;4.65;4.25;;;9.30;99.90;;;;;;4966040;28;20280;-61
2021/10/13 04:23:32;;;;;;;4.00;3.70;;;9.20;99.90;;;;;;4958581;28;20224;-62
2021/10/13 04:26:03;;;;;;;3.42;3.13;;;9.10;99.90;;;;;;4969672;28;20209;-63
2021/10/13 04:28:34;;;;;;;4.28;3.80;;;9.00;99.90;;;;;;4965661;28;20221;-64
2021/10/13 04:31:06;;;;;;;4.20;3.80;;;9.00;99.90;;;;;;4969763;28;20236;-65
2021/10/13 04:33:37;;;;;;;5.25;3.88;;;9.00;99.90;;;;;;4960338;28;20580;-66
2021/10/13 04:36:11;;;;;;;3.75;3.38;;;9.00;99.90;;;;;;4967401;28;20236;-67
2021/10/13 04:38:42;;;;;;;3.08;2.88;;;8.90;99.90;;;;;;4967247;28;20231;-67
2021/10/13 04:41:13;;;;;;;3.10;2.90;;;8.90;99.90;;;;;;4952436;28;20247;-64
2021/10/13 04:43:44;;;;;;;3.22;2.92;;;8.90;99.90;;;;;;4963406;28;20582;-64
2021/10/13 04:46:16;;;;;;;3.38;3.17;;;8.90;99.90;;;;;;4966325;28;20209;-64
2021/10/13 04:48:47;;;;;;;3.97;3.35;;;8.80;99.90;;;;;;4961653;28;20271;-64
2021/10/13 04:51:18;;;;;;;3.42;2.90;;;8.80;99.90;;;;;;4962567;28;20216;-64
2021/10/13 04:53:49;;;;;;;3.90;3.60;;;8.80;99.90;;;;;;4963419;28;20224;-64
2021/10/13 04:56:19;;;;;;;4.35;2.70;;;8.70;99.90;;;;;;4969561;28;20240;-64
2021/10/13 04:58:50;;;;;;;2.92;2.72;;;8.70;99.90;;;;;;4972272;28;20607;-64
2021/10/13 05:01:22;;;;;;;2.95;2.75;;;8.70;99.90;;;;;;4962986;28;20296;-65
2021/10/13 05:03:54;;;;;;;3.65;3.30;;;8.70;99.90;;;;;;4971364;28;20215;-64
2021/10/13 05:06:24;;;;;;;3.42;3.00;;;8.70;99.90;;;;;;4963532;28;20644;-65
2021/10/13 05:08:55;;;;;;;3.35;3.05;;;8.60;99.90;;;;;;4969904;28;20623;-65
2021/10/13 05:11:26;;;;;;;3.70;3.40;;;8.70;99.90;;;;;;4969419;28;20220;-65
2021/10/13 05:13:57;;;;;;;3.03;2.83;;;8.70;99.90;;;;;;4963475;28;20217;-65
2021/10/13 05:16:29;;;;;;;3.20;3.00;;;8.70;99.90;;;;;;4967103;28;20604;-66
2021/10/13 05:19:00;;;;;;;3.53;3.25;;;8.70;99.90;;;;;;4971147;28;20318;-66
2021/10/13 05:21:31;;;;;;;4.78;4.00;;;8.70;99.90;;;;;;4971166;28;20219;-65
2021/10/13 05:24:02;;;;;;;3.00;2.70;;;8.70;99.90;;;;;;4958523;28;20221;-65
2021/10/13 05:26:32;;;;;;;6.18;3.13;;;8.60;99.90;;;;;;4971187;28;20571;-65
2021/10/13 05:29:03;;;;;;;3.50;3.20;;;8.50;99.90;;;;;;4970597;28;20670;-65
2021/10/13 05:31:36;;;;;;;3.70;3.40;;;8.60;99.90;;;;;;4966974;28;20866;-65
2021/10/13 05:34:07;;;;;;;3.65;3.45;;;8.60;99.90;;;;;;4963954;28;20294;-65
2021/10/13 05:36:38;;;;;;;3.70;3.40;;;8.70;99.90;;;;;;4971864;28;20703;-64
2021/10/13 05:39:08;;;;;;;3.63;3.33;;;8.70;99.90;;;;;;4966901;28;20231;-65
2021/10/13 05:41:40;;;;;;;3.72;3.25;;;8.70;99.90;;;;;;4975196;28;20225;-65
2021/10/13 05:44:11;;;;;;;3.78;3.47;;;8.70;99.90;;;;;;4961280;28;20236;-64
2021/10/13 05:46:43;;;;;;;3.17;2.88;;;8.70;99.90;;;;;;4956286;28;20299;-65
2021/10/13 05:49:14;;;;;;;3.50;3.20;;;8.70;99.90;;;;;;4978795;28;20224;-65
2021/10/13 05:51:45;;;;;;;4.30;3.10;;;8.80;99.90;;;;;;4970135;28;20212;-65
2021/10/13 05:54:16;;;;;;;4.25;2.78;;;8.80;99.90;;;;;;4965063;28;20253;-66
2021/10/13 05:56:49;;;;;;;3.38;2.90;;;8.80;99.90;;;;;;4978414;28;20712;-65
2021/10/13 05:59:20;;;;;;;3.65;3.28;;;8.80;99.90;;;;;;4971240;28;20303;-66
2021/10/13 06:01:53;;;;;;;3.60;3.22;;;8.80;99.90;;;;;;4963080;28;20265;-65
2021/10/13 06:04:24;;;;;;;3.70;3.40;;;8.80;99.90;;;;;;4966962;28;20581;-66
2021/10/13 06:06:55;;;;;;;4.38;2.92;;;8.80;99.90;;;;;;4966335;28;20243;-65
2021/10/13 06:09:26;;;;;;;5.32;3.47;;;8.80;99.90;;;;;;4959501;28;20235;-66
2021/10/13 06:11:56;;;;;;;3.88;3.35;;;8.90;99.90;;;;;;4963056;28;20224;-66
2021/10/13 06:14:27;;;;;;;3.05;2.65;;;8.90;99.90;;;;;;4965741;28;20220;-64
2021/10/13 06:17:00;;;;;;;3.22;2.92;;;8.90;99.90;;;;;;4959220;28;20251;-64
2021/10/13 06:19:30;;;;;;;3.42;3.22;;;9.00;99.90;;;;;;4970307;28;20236;-65
2021/10/13 06:22:01;;;;;;;3.72;3.35;;;8.90;99.90;;;;;;4969354;28;20216;-65
2021/10/13 06:24:32;;;;;;;3.30;2.78;;;9.00;99.90;;;;;;4968171;28;20240;-75
2021/10/13 06:27:03;;;;;;;3.47;3.25;;;9.00;99.90;;;;;;4966138;28;20204;-74
2021/10/13 06:29:34;;;;;;;3.50;3.20;;;9.00;99.90;;;;;;4970826;28;20227;-68
2021/10/13 06:32:07;;;;;;;3.28;2.97;;;9.10;99.90;;;;;;4969834;28;20569;-67
2021/10/13 06:34:38;;;;;;;3.53;3.22;;;9.10;99.90;;;;;;4964140;28;20213;-72
2021/10/13 06:37:08;;;;;;;3.72;3.28;;;9.10;99.90;;;;;;4971004;28;20224;-74
2021/10/13 06:39:39;;;;;;;3.10;2.85;;;9.10;99.90;;;;;;4969013;28;20623;-74
2021/10/13 06:42:10;;;;;;;2.70;2.50;;;9.00;99.90;;;;;;4964972;28;20216;-68
2021/10/13 06:44:41;;;;;;;2.88;2.65;;;9.00;99.90;;;;;;4958503;28;20251;-70
2021/10/13 06:47:17;;;;;;;2.90;2.70;;;9.00;99.90;;;;;;4965539;28;20534;-70
2021/10/13 06:49:48;;;;;;;2.50;2.30;;;9.00;99.90;;;;;;4960612;28;20236;-69
2021/10/13 06:52:19;;;;;;;2.45;2.25;;;9.10;99.90;;;;;;4966224;28;20220;-70
2021/10/13 06:54:49;;;;;;;2.92;2.72;;;9.10;99.90;;;;;;4968302;28;20579;-76
2021/10/13 06:57:20;;;;;;;2.80;2.53;;;9.00;99.90;;;;;;4969727;28;20239;-75
2021/10/13 06:59:51;;;;;;;2.53;2.33;;;9.00;99.90;;;;;;4968724;28;20639;-76
2021/10/13 07:02:23;;;;;;;2.70;2.30;;;9.00;99.90;;;;;;4960266;28;20304;-76
2021/10/13 07:04:54;;;;;;;2.17;2.00;;;9.10;99.90;;;;;;4962423;28;20216;-75
2021/10/13 07:07:25;;;;;;;2.75;2.55;;;9.10;99.90;;;;;;4960798;28;20221;-76
2021/10/13 07:09:56;;;;;;;2.83;2.50;;;9.00;99.90;;;;;;4969243;28;20231;-76
2021/10/13 07:12:26;;;;;;;2.90;2.70;;;9.00;99.90;;;;;;4963645;28;20240;-76
2021/10/13 07:14:57;;;;;;;2.83;2.55;;;9.00;99.90;;;;;;4970134;28;20613;-76
2021/10/13 07:17:30;;;;;;;3.25;2.70;;;9.00;99.90;;;;;;4964336;28;20239;-77
2021/10/13 07:20:01;;;;;;;2.42;2.22;;;9.00;99.90;;;;;;4970616;28;20216;-74
2021/10/13 07:22:33;;;;;;;2.75;2.55;;;9.00;99.90;;;;;;4969671;28;20648;-75
2021/10/13 07:25:04;;;;;;;2.88;2.67;;;9.00;99.90;;;;;;4969421;28;20223;-74
2021/10/13 07:27:36;;;;;;;2.92;2.72;;;9.00;99.90;;;;;;4970094;28;20230;-77
2021/10/13 07:30:11;;;;;;;3.42;3.10;;;9.00;99.90;;;;;;4964255;28;20694;-74
2021/10/13 07:32:43;;;;;;;4.00;3.65;;;9.00;99.90;;;;;;4954021;28;20220;-74
2021/10/13 07:35:23;;;;;;;3.17;2.90;;;9.10;99.90;;;;;;4963463;28;20597;-76
2021/10/13 07:37:54;;;;;;;3.72;3.38;;;9.10;99.90;;;;;;4961333;28;20236;-74
2021/10/13 09:19:07;;;;;;;4.82;4.53;;;7.50;99.90;;;;;;4956954;28;20271;-72
2021/10/13 09:22:13;;;;;;;6.40;4.85;;;7.40;99.90;;;;;;4952322;28;20224;-72
2021/10/13 09:24:47;;;;;;;4.50;4.15;;;7.20;99.90;;;;;;4966007;28;20300;-72
2021/10/13 09:31:38;;;;;;;5.32;4.93;;;7.10;99.90;;;;;;4898417;28;20239;-72
2021/10/13 09:59:17;;;;;;;7.50;6.03;;;7.00;99.90;;;;;;4888398;28;20397;-83
2021/10/13 11:32:11;;;;;;;7.80;6.55;;;7.50;99.90;;;;;;4966832;28;20256;-72
2021/10/13 11:37:56;;;;;;;8.95;7.13;;;7.30;99.90;;;;;;4966673;28;20256;-73
2021/10/13 11:40:34;;;;;;;7.57;6.95;;;7.30;99.90;;;;;;4972126;28;20368;-73
2021/10/13 11:43:17;;;;;;;8.77;7.40;;;7.30;99.90;;;;;;4953349;28;20221;-72
2021/10/13 11:46:01;;;;;;;8.40;7.60;;;7.20;99.90;;;;;;4959415;28;20217;-72
2021/10/13 11:48:53;;;;;;;11.43;7.88;;;7.30;99.90;;;;;;4975841;28;20303;-72
2021/10/13 11:55:03;;;;;;;10.02;8.13;;;7.50;99.90;;;;;;4966845;28;20295;-72
2021/10/13 11:58:04;;;;;;;8.60;7.70;;;7.60;99.90;;;;;;4978785;28;20346;-72
2021/10/13 12:00:58;;;;;;;9.07;7.82;;;7.70;99.90;;;;;;4968317;28;20239;-73
2021/10/13 12:07:57;;;;;;;9.60;8.35;;;7.70;99.90;;;;;;4968591;28;20636;-73
2021/10/13 14:05:28;;;;;;;14.37;11.60;;;7.30;99.90;;;;;;6071637;22;1946781;-75
2021/10/13 14:07:59;;;;;;;14.40;11.52;;;7.30;99.90;;;;;;6152301;23;20164;-74
2021/10/13 14:10:50;;;;;;;14.07;11.98;;;7.30;99.90;;;;;;6150624;23;20187;-73
2021/10/13 14:13:21;;;;;;;13.60;12.18;;;7.40;99.90;;;;;;6151421;23;20662;-75
2021/10/13 14:15:52;;;;;;;14.60;12.30;;;7.40;99.90;;;;;;6151989;23;20670;-73
2021/10/13 14:18:23;;;;;;;15.15;12.07;;;7.40;99.90;;;;;;6149187;23;20244;-75
2021/10/13 14:20:56;;;;;;;13.57;12.20;;;7.30;99.90;;;;;;6150572;23;20206;-75
2021/10/13 14:23:28;;;;;;;13.50;11.88;;;7.20;99.90;;;;;;6145891;23;20380;-75
2021/10/13 14:25:59;;;;;;;13.50;12.10;;;7.30;99.90;;;;;;6147109;23;20187;-75
2021/10/13 14:28:29;;;;;;;13.82;12.32;;;7.30;99.90;;;;;;6151678;23;20242;-74
2021/10/13 14:31:01;;;;;;;241.57;45.83;;;7.20;99.90;;;;;;6151728;23;20170;-74
2021/10/13 14:33:47;;;;;;;1010.67;137.20;;;7.30;99.90;;;;;;6149830;23;20282;-74
2021/10/13 14:36:19;;;;;;;13.98;12.43;;;7.30;99.90;;;;;;6151374;23;20221;-75
2021/10/13 14:38:50;;;;;;;27.42;13.82;;;7.30;99.90;;;;;;6150986;23;20202;-75
2021/10/13 14:41:21;;;;;;;24.35;13.65;;;7.40;99.90;;;;;;6150109;23;20653;-75
2021/10/13 14:43:52;;;;;;;15.70;13.10;;;7.40;99.90;;;;;;6149614;23;20281;-76
2021/10/13 14:46:22;;;;;;;16.10;12.45;;;7.50;99.90;;;;;;6149157;23;20184;-73
2021/10/13 14:48:53;;;;;;;20.88;13.63;;;7.60;99.90;;;;;;6150737;23;20215;-75
2021/10/13 14:51:26;;;;;;;13.45;11.55;;;7.70;99.90;;;;;;6151636;23;20205;-76
2021/10/13 14:53:57;;;;;;;18.65;12.32;;;7.80;99.90;;;;;;6148215;23;20210;-74
2021/10/13 14:56:28;;;;;;;17.20;13.20;;;7.80;99.90;;;;;;6154566;23;20187;-74
2021/10/13 14:58:58;;;;;;;17.63;12.65;;;7.90;99.90;;;;;;6151551;23;20183;-75
2021/10/13 15:01:29;;;;;;;14.73;12.65;;;8.10;99.90;;;;;;6147031;23;20194;-75
2021/10/13 15:04:01;;;;;;;14.25;12.75;;;8.20;99.90;;;;;;6149410;23;20207;-74
2021/10/13 15:06:34;;;;;;;15.82;12.80;;;8.20;99.90;;;;;;6141768;23;20183;-73
2021/10/13 15:09:04;;;;;;;33.72;16.10;;;8.20;99.90;;;;;;6147298;23;20480;-73
2021/10/13 15:11:35;;;;;;;13.90;12.05;;;8.20;99.90;;;;;;6150626;23;20187;-74
2021/10/13 15:14:08;;;;;;;15.40;12.45;;;8.40;99.90;;;;;;6148159;23;20207;-72
2021/10/13 15:16:41;;;;;;;13.80;11.43;;;8.40;99.90;;;;;;6147650;23;20206;-71
2021/10/13 15:19:19;;;;;;;15.05;12.43;;;8.50;99.90;;;;;;6139967;23;20190;-71
2021/10/13 15:21:53;;;;;;;14.05;12.65;;;8.50;99.90;;;;;;6146039;23;20190;-74
2021/10/13 15:24:26;;;;;;;14.35;11.65;;;8.50;99.90;;;;;;6146183;23;20179;-74
2021/10/13 15:31:22;;;;;;;12.90;11.45;;;8.40;99.90;;;;;;6126976;23;20296;-76
2021/10/13 15:33:57;;;;;;;11.30;9.63;;;8.50;99.90;;;;;;6146404;23;20294;-72
2021/10/13 16:04:19;;;;;;;11.05;10.05;;;9.00;99.90;;;;;;6128299;23;20671;-73
2021/10/13 16:06:51;;;;;;;10.95;9.85;;;9.10;99.90;;;;;;6150460;23;20548;-72
2021/10/13 16:09:22;;;;;;;12.55;9.90;;;9.20;99.90;;;;;;6145760;23;20229;-71
2021/10/13 16:11:53;;;;;;;10.10;9.10;;;9.10;99.90;;;;;;6150050;23;20182;-72
2021/10/13 16:14:24;;;;;;;11.00;9.57;;;9.20;99.90;;;;;;6142939;23;20210;-69
2021/10/13 16:16:57;;;;;;;9.45;8.45;;;9.30;99.90;;;;;;6143640;23;20578;-71
2021/10/13 16:19:30;;;;;;;10.00;9.00;;;9.40;99.90;;;;;;6144696;23;20287;-73
2021/10/13 16:25:34;;;;;;;12.18;8.75;;;9.70;99.90;;;;;;6146241;23;20183;-74
2021/10/13 16:28:43;;;;;;;8.63;7.82;;;9.90;99.90;;;;;;6143354;23;20183;-73
2021/10/13 16:31:32;;;;;;;10.13;8.38;;;9.90;99.90;;;;;;6150307;23;20203;-73
2021/10/13 16:34:40;;;;;;;10.73;7.72;;;9.90;99.90;;;;;;6148370;23;20639;-74
2021/10/13 16:37:22;;;;;;;8.35;7.50;;;9.70;99.90;;;;;;6150288;23;20267;-73
2021/10/13 16:40:03;;;;;;;8.48;7.75;;;9.80;99.90;;;;;;6148713;23;20532;-73
2021/10/13 16:43:04;;;;;;;9.75;8.45;;;9.80;99.90;;;;;;6149115;23;20197;-74
2021/10/13 16:45:54;;;;;;;8.70;7.90;;;9.90;99.90;;;;;;6149243;23;20250;-74
2021/10/13 16:48:27;;;;;;;9.13;8.23;;;10.10;99.90;;;;;;6147526;23;20206;-73
2021/10/13 16:59:34;;;;;;;7.82;7.07;;;10.30;99.90;;;;;;6085809;23;20473;-71
2021/10/13 17:29:05;;;;;;;8.60;7.70;;;10.80;99.90;;;;;;6021904;23;20345;-76
2021/10/13 17:50:37;;;;;;;7.60;6.90;;;11.80;99.90;;;;;;6123987;23;20764;-73
2021/10/13 17:53:08;;;;;;;7.37;6.77;;;11.80;99.90;;;;;;6142976;23;20408;-73
2021/10/13 17:55:40;;;;;;;7.00;5.97;;;11.60;99.90;;;;;;6216133;23;20804;-73
2021/10/13 17:58:19;;;;;;;7.07;6.47;;;11.50;99.90;;;;;;6216379;23;20775;-74
2021/10/13 18:01:06;;;;;;;9.23;7.07;;;11.70;99.90;;;;;;6218473;23;20434;-74
2021/10/13 18:03:40;;;;;;;9.13;6.83;;;12.00;99.90;;;;;;6207941;23;20950;-73
2021/10/13 18:06:23;;;;;;;7.67;6.23;;;11.90;99.90;;;;;;6219439;23;20434;-73
2021/10/13 18:08:56;;;;;;;7.70;6.77;;;11.80;99.90;;;;;;6216966;23;20546;-73
2021/10/13 18:12:01;;;;;;;7.33;6.57;;;12.00;99.90;;;;;;6212670;23;20420;-74
2021/10/13 18:14:37;;;;;;;7.70;6.67;;;12.20;99.90;;;;;;6211224;23;20550;-73
2021/10/13 18:17:08;;;;;;;7.87;6.93;;;12.40;99.90;;;;;;6216082;23;20439;-73
2021/10/13 18:19:41;;;;;;;7.70;6.87;;;12.60;99.90;;;;;;6209098;23;20414;-72
2021/10/13 18:22:15;;;;;;;8.10;6.57;;;12.70;99.90;;;;;;6216382;23;20397;-74
2021/10/13 18:24:46;;;;;;;7.80;7.13;;;12.60;99.90;;;;;;6213171;23;20404;-72
2021/10/13 18:27:17;;;;;;;8.13;6.90;;;12.60;99.90;;;;;;6214861;23;20486;-71
2021/10/13 18:29:48;;;;;;;7.73;7.03;;;12.60;99.90;;;;;;6215128;23;20422;-71
2021/10/13 18:32:23;;;;;;;10.30;7.57;;;12.80;99.90;;;;;;6216879;23;20498;-70
2021/10/13 18:34:56;;;;;;;7.17;6.50;;;12.90;99.90;;;;;;6218227;23;20446;-71
2021/10/13 18:37:26;;;;;;;7.23;6.53;;;12.80;99.90;;;;;;6217171;23;20422;-71
2021/10/13 18:39:58;;;;;;;7.40;6.70;;;13.10;99.90;;;;;;6216338;23;20412;-72
2021/10/13 18:42:29;;;;;;;7.27;6.57;;;13.20;99.90;;;;;;6215002;23;20438;-72
2021/10/13 18:45:00;;;;;;;8.63;7.27;;;13.70;99.90;;;;;;6212518;23;20444;-72
2021/10/13 18:47:31;;;;;;;7.50;6.80;;;13.70;99.90;;;;;;6205770;23;20423;-72
2021/10/13 18:50:03;;;;;;;8.77;6.83;;;14.00;99.90;;;;;;6211088;23;20409;-72
2021/10/13 18:52:34;;;;;;;7.33;6.63;;;14.90;99.90;;;;;;6208390;23;20421;-73
2021/10/13 18:55:06;;;;;;;7.67;6.97;;;15.80;99.90;;;;;;6209258;23;20445;-72
2021/10/13 18:57:37;;;;;;;8.10;7.30;;;15.70;99.90;;;;;;6210294;23;20519;-72
2021/10/13 19:00:09;;;;;;;7.80;7.00;;;15.50;99.90;;;;;;6208980;23;20420;-71
2021/10/13 19:02:42;;;;;;;8.10;7.30;;;15.00;99.90;;;;;;6205314;23;20515;-72
2021/10/13 19:05:15;;;;;;;7.67;6.87;;;14.70;99.90;;;;;;6205717;23;20570;-71
2021/10/13 19:07:47;;;;;;;7.80;6.97;;;14.20;99.90;;;;;;6211409;23;20491;-75
2021/10/13 19:10:18;;;;;;;8.40;7.70;;;13.90;99.90;;;;;;6209161;23;20463;-71
2021/10/13 19:12:49;;;;;;;7.73;6.93;;;13.70;99.90;;;;;;6210296;23;20412;-71
2021/10/13 19:15:20;;;;;;;9.13;8.23;;;13.40;99.90;;;;;;6206070;23;20779;-71
2021/10/13 19:17:51;;;;;;;9.33;8.37;;;13.30;99.90;;;;;;6207481;23;20413;-71
2021/10/13 19:20:23;;;;;;;8.57;7.77;;;13.10;99.90;;;;;;6211421;23;20413;-71
2021/10/13 19:22:55;;;;;;;8.60;7.80;;;12.70;99.90;;;;;;6210415;23;20416;-71
2021/10/13 19:25:26;;;;;;;9.77;8.80;;;12.40;99.90;;;;;;6209228;23;20983;-72
2021/10/13 19:27:57;;;;;;;9.80;8.60;;;12.40;99.90;;;;;;6210599;23;20417;-70
2021/10/13 19:30:28;;;;;;;11.90;8.90;;;12.30;99.90;;;;;;6210917;23;20429;-71
2021/10/13 19:32:59;;;;;;;12.20;9.37;;;12.20;99.90;;;;;;6207783;23;20428;-72
2021/10/13 19:35:32;;;;;;;10.53;8.83;;;12.30;99.90;;;;;;6206577;23;20785;-72
2021/10/13 19:38:03;;;;;;;9.00;8.10;;;12.30;99.90;;;;;;6208517;23;20417;-70
2021/10/13 19:40:34;;;;;;;9.93;8.73;;;12.40;99.90;;;;;;6211369;23;20749;-70
2021/10/13 19:43:05;;;;;;;11.57;9.07;;;12.50;99.90;;;;;;6210579;23;20415;-71
2021/10/13 19:45:36;;;;;;;10.00;9.00;;;12.50;99.90;;;;;;6210764;23;20447;-71
2021/10/13 19:48:09;;;;;;;10.63;9.33;;;12.30;99.90;;;;;;6206706;23;20413;-71
2021/10/13 19:50:41;;;;;;;10.30;9.30;;;12.40;99.90;;;;;;6210660;23;20409;-71
2021/10/13 19:53:12;;;;;;;12.30;10.63;;;12.60;99.90;;;;;;6210150;23;20413;-72
2021/10/13 19:55:44;;;;;;;11.43;10.17;;;12.70;99.90;;;;;;6209397;23;20439;-71
2021/10/13 19:58:16;;;;;;;10.20;9.13;;;13.10;99.90;;;;;;6208841;23;20409;-71
2021/10/13 20:00:47;;;;;;;9.80;8.80;;;13.40;99.90;;;;;;6211241;23;20431;-71
2021/10/13 20:03:18;;;;;;;9.60;8.70;;;13.50;99.90;;;;;;6206119;23;20409;-72
2021/10/13 20:05:51;;;;;;;12.37;9.57;;;13.90;99.90;;;;;;6207272;23;20496;-72
2021/10/13 20:08:22;;;;;;;8.47;7.77;;;14.20;99.90;;;;;;6210103;23;20413;-72
2021/10/13 20:10:53;;;;;;;10.10;8.37;;;14.30;99.90;;;;;;6210672;23;20911;-71
2021/10/13 20:13:24;;;;;;;9.47;8.47;;;14.10;99.90;;;;;;6209539;23;20417;-71
2021/10/13 20:15:55;;;;;;;9.90;8.90;;;14.00;99.90;;;;;;6210208;23;20527;-72
2021/10/13 20:18:26;;;;;;;10.60;9.50;;;14.00;99.90;;;;;;6202633;23;20409;-71
2021/10/13 20:20:58;;;;;;;9.57;8.70;;;14.20;99.90;;;;;;6209764;23;20452;-71
2021/10/13 20:23:29;;;;;;;10.20;9.30;;;14.10;99.90;;;;;;6206187;23;20402;-71
2021/10/13 20:26:00;;;;;;;9.57;8.33;;;14.10;99.90;;;;;;6207322;23;20409;-73
2021/10/13 20:28:31;;;;;;;9.83;8.67;;;13.70;99.90;;;;;;6209711;23;20409;-71
2021/10/13 20:31:02;;;;;;;11.50;8.10;;;13.60;99.90;;;;;;6207788;23;20443;-69
2021/10/13 20:33:35;;;;;;;10.27;9.23;;;13.30;99.90;;;;;;6202732;23;20423;-71